createdAt,value
2022-09-05T00:02:53.593Z,95.80
2022-09-05T00:05:26.276Z,95.70
2022-09-05T00:08:10.787Z,95.60
2022-09-05T00:11:41.754Z,95.40
2022-09-05T00:13:58.224Z,95.30
2022-09-05T00:16:55.539Z,95.20
2022-09-05T00:24:19.003Z,95.00
2022-09-05T00:24:25.585Z,94.80
2022-09-05T00:26:22.118Z,94.70
2022-09-05T00:29:18.971Z,94.90
2022-09-05T00:32:06.803Z,94.80
2022-09-05T00:34:54.223Z,95.10
2022-09-05T00:37:50.792Z,95.20
2022-09-05T00:40:35.622Z,95.20
2022-09-05T00:43:10.999Z,95.30
2022-09-05T00:45:49.013Z,95.20
2022-09-05T00:48:44.656Z,95.30
2022-09-05T00:51:41.357Z,95.20
2022-09-05T00:54:40.280Z,95.20
2022-09-05T00:57:49.288Z,95.30
2022-09-05T01:00:24.807Z,95.50
2022-09-05T01:03:17.871Z,95.50
2022-09-05T01:06:06.479Z,95.60
2022-09-05T01:08:56.878Z,95.70
2022-09-05T01:11:53.384Z,95.60
2022-09-05T01:14:41.704Z,95.60
2022-09-05T01:17:27.078Z,95.60
2022-09-05T01:20:18.604Z,95.70
2022-09-05T01:22:54.667Z,95.70
2022-09-05T01:25:52.549Z,95.70
2022-09-05T01:29:15.862Z,95.80
2022-09-05T01:32:08.312Z,95.70
2022-09-05T01:34:57.485Z,95.90
2022-09-05T01:37:33.322Z,95.90
2022-09-05T01:40:16.995Z,95.90
2022-09-05T01:43:20.958Z,96.00
2022-09-05T01:46:00.150Z,96.00
2022-09-05T01:48:54.120Z,96.00
2022-09-05T01:51:32.118Z,96.00
2022-09-05T01:54:25.423Z,96.20
2022-09-05T01:57:03.045Z,96.20
2022-09-05T01:59:46.025Z,96.20
2022-09-05T02:02:24.467Z,96.20
2022-09-05T02:05:15.914Z,96.10
2022-09-05T02:07:54.551Z,96.20
2022-09-05T02:10:47.931Z,96.30
2022-09-05T02:13:35.185Z,96.40
2022-09-05T02:16:31.223Z,96.40
2022-09-05T02:19:11.072Z,96.40
2022-09-05T02:22:07.561Z,96.40
2022-09-05T02:24:46.763Z,96.50
2022-09-05T02:27:28.339Z,96.50
2022-09-05T02:30:17.549Z,96.50
2022-09-05T02:33:25.938Z,96.60
2022-09-05T02:36:04.914Z,96.60
2022-09-05T02:41:45.589Z,96.70
2022-09-05T02:45:09.523Z,96.80
2022-09-05T02:45:21.086Z,96.80
2022-09-05T02:47:30.255Z,96.80
2022-09-05T02:55:56.140Z,96.70
2022-09-05T02:57:40.791Z,96.70
2022-09-05T02:57:43.077Z,96.80
2022-09-05T02:59:45.330Z,96.90
2022-09-05T03:02:57.902Z,97.00
2022-09-05T03:05:35.105Z,97.00
2022-09-05T03:08:16.148Z,97.00
2022-09-05T03:10:58.864Z,97.00
2022-09-05T03:13:48.883Z,97.10
2022-09-05T03:16:40.526Z,97.20
2022-09-05T03:19:53.504Z,97.20
2022-09-05T03:22:37.232Z,97.20
2022-09-05T03:25:33.829Z,97.20
2022-09-05T03:28:37.908Z,97.30
2022-09-05T03:31:31.145Z,97.30
2022-09-05T03:34:31.469Z,97.30
2022-09-05T03:37:25.325Z,97.40
2022-09-05T03:40:28.357Z,97.40
2022-09-05T03:43:19.087Z,97.30
2022-09-05T03:46:11.335Z,97.30
2022-09-05T03:49:17.623Z,97.40
2022-09-05T03:57:05.685Z,97.40
2022-09-05T03:57:11.365Z,97.40
2022-09-05T03:58:16.907Z,97.40
2022-09-05T04:01:17.569Z,97.50
2022-09-05T04:08:07.035Z,97.50
2022-09-05T04:08:20.856Z,97.60
2022-09-05T04:09:58.872Z,97.70
2022-09-05T04:12:34.207Z,97.70
2022-09-05T04:15:41.298Z,97.80
2022-09-05T04:18:32.695Z,97.80
2022-09-05T04:21:18.572Z,97.80
2022-09-05T04:23:54.105Z,97.90
2022-09-05T04:26:39.322Z,97.90
2022-09-05T04:29:37.108Z,98.00
2022-09-05T04:32:19.246Z,98.00
2022-09-05T04:35:11.700Z,98.10
2022-09-05T04:37:48.857Z,98.10
2022-09-05T04:40:44.365Z,98.10
2022-09-05T04:43:25.721Z,98.10
2022-09-05T04:46:21.610Z,98.10
2022-09-05T04:49:05.560Z,98.30
2022-09-05T04:51:43.937Z,98.30
2022-09-05T04:54:53.030Z,98.30
2022-09-05T04:57:42.285Z,98.30
2022-09-05T05:06:00.177Z,98.20
2022-09-05T05:06:14.485Z,98.20
2022-09-05T05:06:36.755Z,98.20
2022-09-05T05:09:08.763Z,98.30
2022-09-05T05:17:58.942Z,98.20
2022-09-05T05:18:15.330Z,98.30
2022-09-05T05:18:15.467Z,98.30
2022-09-05T05:20:42.355Z,98.20
2022-09-05T05:23:20.080Z,98.30
2022-09-05T05:25:53.837Z,98.20
2022-09-05T05:28:44.720Z,98.30
2022-09-05T05:31:15.447Z,98.30
2022-09-05T05:33:47.946Z,98.20
2022-09-05T05:36:32.048Z,98.20
2022-09-05T05:39:12.576Z,98.20
2022-09-05T05:41:42.559Z,98.30
2022-09-05T05:44:37.471Z,98.30
2022-09-05T05:47:31.338Z,98.30
2022-09-05T05:50:11.716Z,98.30
2022-09-05T05:52:42.830Z,98.30
2022-09-05T05:55:51.848Z,98.30
2022-09-05T05:58:40.013Z,98.30
2022-09-05T06:01:37.279Z,98.20
2022-09-05T06:05:03.211Z,98.10
2022-09-05T06:09:05.644Z,98.00
2022-09-05T06:14:49.155Z,98.30
2022-09-05T06:14:59.316Z,97.90
2022-09-05T06:17:09.261Z,97.90
2022-09-05T06:22:05.887Z,97.70
2022-09-05T06:23:38.730Z,97.60
2022-09-05T06:26:24.754Z,97.50
2022-09-05T06:29:00.436Z,97.40
2022-09-05T06:31:51.674Z,97.40
2022-09-05T06:34:36.138Z,97.30
2022-09-05T06:37:24.730Z,97.20
2022-09-05T06:40:12.954Z,97.20
2022-09-05T06:43:11.103Z,97.00
2022-09-05T06:45:58.459Z,96.70
2022-09-05T06:49:30.885Z,96.60
2022-09-05T06:51:37.383Z,96.50
2022-09-05T06:54:33.954Z,96.30
2022-09-05T06:57:44.128Z,96.30
2022-09-05T07:00:23.104Z,96.20
2022-09-05T07:03:27.722Z,96.00
2022-09-05T07:06:06.875Z,95.80
2022-09-05T07:08:37.466Z,95.60
2022-09-05T07:11:24.494Z,95.50
2022-09-05T07:13:56.295Z,95.60
2022-09-05T07:16:37.670Z,95.20
2022-09-05T07:19:08.047Z,95.00
2022-09-05T07:22:04.554Z,94.90
2022-09-05T07:24:54.614Z,94.70
2022-09-05T07:27:29.883Z,94.60
2022-09-05T07:30:01.745Z,94.70
2022-09-05T07:32:38.625Z,94.60
2022-09-05T07:35:13.655Z,94.50
2022-09-05T07:37:44.015Z,94.50
2022-09-05T07:40:25.158Z,94.50
2022-09-05T07:43:10.158Z,94.30
2022-09-05T07:45:55.987Z,94.10
2022-09-05T07:48:34.537Z,94.00
2022-09-05T07:56:49.702Z,93.70
2022-09-05T07:56:54.765Z,93.80
2022-09-05T07:59:51.339Z,93.60
2022-09-05T08:02:18.109Z,93.00
2022-09-05T08:04:45.168Z,93.00
2022-09-05T08:07:47.734Z,92.30
2022-09-05T08:10:35.557Z,91.40
2022-09-05T08:13:24.723Z,90.60
2022-09-05T08:16:09.905Z,90.10
2022-09-05T08:18:47.709Z,90.40
2022-09-05T08:21:27.847Z,89.20
2022-09-05T08:24:27.000Z,87.00
2022-09-05T08:27:16.098Z,85.60
2022-09-05T08:30:26.898Z,85.80
2022-09-05T08:32:57.603Z,85.80
2022-09-05T08:35:53.073Z,85.20
2022-09-05T08:38:33.905Z,83.70
2022-09-05T08:41:09.644Z,84.00
2022-09-05T08:46:40.699Z,84.80
2022-09-05T08:46:53.229Z,85.10
2022-09-05T08:49:37.023Z,83.80
2022-09-05T08:52:32.578Z,82.80
2022-09-05T08:55:11.871Z,82.20
2022-09-05T08:58:25.228Z,81.50
2022-09-05T09:01:03.676Z,81.50
2022-09-05T09:04:05.056Z,80.80
2022-09-05T09:07:30.817Z,79.50
2022-09-05T09:10:03.597Z,78.70
2022-09-05T09:12:33.483Z,77.10
2022-09-05T09:15:25.039Z,77.20
2022-09-05T09:17:55.502Z,76.70
2022-09-05T09:20:53.032Z,75.70
2022-09-05T09:23:44.932Z,76.40
2022-09-05T09:26:16.865Z,75.60
2022-09-05T09:29:02.452Z,75.70
2022-09-05T09:31:50.994Z,76.00
2022-09-05T09:34:27.210Z,75.10
2022-09-05T09:37:51.900Z,75.20
2022-09-05T09:40:29.519Z,75.20
2022-09-05T09:43:20.503Z,74.30
2022-09-05T09:46:22.577Z,73.90
2022-09-05T09:49:23.797Z,74.80
2022-09-05T09:52:19.416Z,73.60
2022-09-05T09:55:13.250Z,73.20
2022-09-05T09:57:50.483Z,71.20
2022-09-05T10:00:22.899Z,70.00
2022-09-05T10:06:27.146Z,68.90
2022-09-05T10:10:45.057Z,69.00
2022-09-05T10:10:47.754Z,68.10
2022-09-05T10:12:32.858Z,67.20
2022-09-05T10:15:25.442Z,67.40
2022-09-05T10:18:03.276Z,68.10
2022-09-05T10:20:35.261Z,66.50
2022-09-05T10:23:33.184Z,65.90
2022-09-05T10:26:33.576Z,65.50
2022-09-05T10:29:37.103Z,65.10
2022-09-05T10:35:10.271Z,64.90
2022-09-05T10:35:23.964Z,65.70
2022-09-05T10:38:11.351Z,64.20
2022-09-05T10:41:21.641Z,63.30
2022-09-05T10:44:01.356Z,63.10
2022-09-05T10:46:56.126Z,62.70
2022-09-05T10:49:30.079Z,62.20
2022-09-05T10:52:19.899Z,61.50
2022-09-05T10:55:17.317Z,60.20
2022-09-05T10:58:11.799Z,60.60
2022-09-05T11:02:21.751Z,60.90
2022-09-05T11:04:22.670Z,60.70
2022-09-05T11:07:10.581Z,60.80
2022-09-05T11:09:48.149Z,59.90
2022-09-05T11:12:57.946Z,59.50
2022-09-05T11:15:39.270Z,58.40
2022-09-05T11:18:55.040Z,57.40
2022-09-05T11:21:39.692Z,57.50
2022-09-05T11:24:09.788Z,57.00
2022-09-05T11:26:51.390Z,56.90
2022-09-05T11:30:07.556Z,57.00
2022-09-05T11:37:54.663Z,56.70
2022-09-05T11:39:48.899Z,56.20
2022-09-05T11:40:04.816Z,56.20
2022-09-05T11:42:18.361Z,55.40
2022-09-05T11:44:49.379Z,55.60
2022-09-05T11:47:44.873Z,55.20
2022-09-05T11:50:29.604Z,54.50
2022-09-05T11:53:11.354Z,55.10
2022-09-05T11:56:03.538Z,54.40
2022-09-05T11:59:04.827Z,54.10
2022-09-05T12:01:55.615Z,53.00
2022-09-05T12:05:49.292Z,52.90
2022-09-05T12:08:05.567Z,52.50
2022-09-05T12:10:51.989Z,51.90
2022-09-05T12:14:20.925Z,51.10
2022-09-05T12:20:16.952Z,51.30
2022-09-05T12:23:00.671Z,52.30
2022-09-05T12:27:39.387Z,51.50
2022-09-05T12:29:32.787Z,52.10
2022-09-05T12:33:50.750Z,51.90
2022-09-05T12:36:07.312Z,51.10
2022-09-05T12:40:54.275Z,49.90
2022-09-05T12:41:41.299Z,51.90
2022-09-05T12:41:43.449Z,49.80
2022-09-05T12:44:42.524Z,48.80
2022-09-05T12:47:18.973Z,50.60
2022-09-05T12:50:14.548Z,50.40
2022-09-05T12:52:51.474Z,49.80
2022-09-05T12:55:26.335Z,49.20
2022-09-05T13:02:09.302Z,48.60
2022-09-05T13:03:05.043Z,48.70
2022-09-05T13:04:13.113Z,48.00
2022-09-05T13:06:43.593Z,48.10
2022-09-05T13:09:19.506Z,48.50
2022-09-05T13:14:52.472Z,48.90
2022-09-05T13:15:23.856Z,48.70
2022-09-05T13:17:59.223Z,49.80
2022-09-05T13:20:36.448Z,49.30
2022-09-05T13:23:04.994Z,48.40
2022-09-05T13:25:34.358Z,49.80
2022-09-05T13:28:06.314Z,47.90
2022-09-05T13:37:53.927Z,47.80
2022-09-05T13:38:15.618Z,47.50
2022-09-05T13:38:19.332Z,47.60
2022-09-05T13:39:28.827Z,47.50
2022-09-05T13:42:04.639Z,47.60
2022-09-05T13:44:38.707Z,48.10
2022-09-05T13:47:29.802Z,49.00
2022-09-05T13:50:19.259Z,49.50
2022-09-05T13:53:15.711Z,50.90
2022-09-05T13:56:14.611Z,50.40
2022-09-05T13:58:57.071Z,50.60
2022-09-05T14:01:24.470Z,51.60
2022-09-05T14:07:45.098Z,52.60
2022-09-05T14:10:50.182Z,52.60
2022-09-05T14:13:30.021Z,53.10
2022-09-05T14:16:00.548Z,53.20
2022-09-05T14:18:54.018Z,53.60
2022-09-05T14:21:21.234Z,54.00
2022-09-05T14:24:05.640Z,54.80
2022-09-05T14:26:53.102Z,55.00
2022-09-05T14:29:28.858Z,54.70
2022-09-05T14:37:40.626Z,56.00
2022-09-05T14:37:41.233Z,55.40
2022-09-05T14:38:53.434Z,55.70
2022-09-05T14:42:09.282Z,56.30
2022-09-05T14:45:15.591Z,56.70
2022-09-05T14:47:54.473Z,57.10
2022-09-05T14:50:46.214Z,57.30
2022-09-05T14:57:23.287Z,57.70
2022-09-05T15:02:55.255Z,57.40
2022-09-05T15:03:00.091Z,57.90
2022-09-05T15:05:20.249Z,57.40
2022-09-05T15:07:49.418Z,58.50
2022-09-05T15:12:14.552Z,57.70
2022-09-05T15:13:20.220Z,58.00
2022-09-05T15:16:02.308Z,58.00
2022-09-05T15:18:39.066Z,57.60
2022-09-05T15:21:41.222Z,57.60
2022-09-05T15:24:19.196Z,57.90
2022-09-05T15:26:53.068Z,58.20
2022-09-05T15:29:24.254Z,58.10
2022-09-05T15:31:51.426Z,58.40
2022-09-05T15:34:31.981Z,58.50
2022-09-05T15:37:09.147Z,58.50
2022-09-05T15:39:50.672Z,58.90
2022-09-05T15:42:21.405Z,58.40
2022-09-05T15:45:09.268Z,58.10
2022-09-05T15:47:39.463Z,58.40
2022-09-05T15:50:22.612Z,58.40
2022-09-05T15:52:55.312Z,58.60
2022-09-05T15:55:25.293Z,58.60
2022-09-05T15:57:55.526Z,58.40
2022-09-05T16:00:45.311Z,58.40
2022-09-05T16:06:10.719Z,58.00
2022-09-05T16:10:29.754Z,59.00
2022-09-05T16:10:45.313Z,60.70
2022-09-05T16:17:24.839Z,60.80
2022-09-05T16:23:26.206Z,61.40
2022-09-05T16:23:35.246Z,61.70
2022-09-05T16:24:05.696Z,63.60
2022-09-05T16:26:47.248Z,63.70
2022-09-05T16:29:23.908Z,63.80
2022-09-05T16:32:10.240Z,63.50
2022-09-05T16:34:50.127Z,65.90
2022-09-05T16:37:39.437Z,67.00
2022-09-05T16:40:18.212Z,68.10
2022-09-05T16:43:04.872Z,68.70
2022-09-05T16:45:55.643Z,70.20
2022-09-05T16:48:22.428Z,71.20
2022-09-05T16:51:17.231Z,71.20
2022-09-05T16:54:10.990Z,71.70
2022-09-05T16:56:49.539Z,71.80
2022-09-05T16:59:26.581Z,72.10
2022-09-05T17:02:22.077Z,72.20
2022-09-05T17:05:09.147Z,73.20
2022-09-05T17:08:15.412Z,74.40
2022-09-05T17:11:03.704Z,74.50
2022-09-05T17:13:50.101Z,74.60
2022-09-05T17:16:49.334Z,75.00
2022-09-05T17:19:24.538Z,75.50
2022-09-05T17:25:14.030Z,75.60
2022-09-05T17:29:24.244Z,76.40
2022-09-05T17:29:32.367Z,75.70
2022-09-05T17:31:56.469Z,77.40
2022-09-05T17:34:32.971Z,77.80
2022-09-05T17:37:29.043Z,78.20
2022-09-05T17:40:33.522Z,79.00
2022-09-05T17:43:18.617Z,79.60
2022-09-05T17:46:24.213Z,80.30
2022-09-05T17:49:18.677Z,80.80
2022-09-05T17:51:42.176Z,81.20
2022-09-05T17:54:29.917Z,81.70
2022-09-05T17:57:16.634Z,82.50
2022-09-05T17:59:43.594Z,82.80
2022-09-05T18:02:15.691Z,83.30
2022-09-05T18:04:54.049Z,83.70
2022-09-05T18:07:26.940Z,83.60
2022-09-05T18:10:13.055Z,83.80
2022-09-05T18:13:13.520Z,84.30
2022-09-05T18:15:37.633Z,84.30
2022-09-05T18:18:08.672Z,84.40
2022-09-05T18:21:21.082Z,84.60
2022-09-05T18:24:01.278Z,84.80
2022-09-05T18:26:37.009Z,84.60
2022-09-05T18:29:16.393Z,84.60
2022-09-05T18:31:43.708Z,85.10
2022-09-05T18:34:19.071Z,85.40
2022-09-05T18:36:53.316Z,86.30
2022-09-05T18:39:37.936Z,87.40
2022-09-05T18:42:33.599Z,88.40
2022-09-05T18:45:15.122Z,89.70
2022-09-05T18:47:52.951Z,90.60
2022-09-05T18:50:32.079Z,91.10
2022-09-05T18:53:10.642Z,91.30
2022-09-05T18:56:21.354Z,91.70
2022-09-05T18:59:09.889Z,92.00
2022-09-05T19:01:45.441Z,92.10
2022-09-05T19:04:39.155Z,92.50
2022-09-05T19:07:14.382Z,92.80
2022-09-05T19:10:33.842Z,92.90
2022-09-05T19:13:01.704Z,93.20
2022-09-05T19:15:44.329Z,93.40
2022-09-05T19:18:26.429Z,93.90
2022-09-05T19:21:12.358Z,94.10
2022-09-05T19:23:48.492Z,94.30
2022-09-05T19:26:15.539Z,94.30
2022-09-05T19:35:58.691Z,94.60
2022-09-05T19:36:47.313Z,94.90
2022-09-05T19:37:13.089Z,95.10
2022-09-05T19:37:39.933Z,95.40
2022-09-05T19:44:09.024Z,95.70
2022-09-05T19:47:43.285Z,96.00
2022-09-05T19:47:51.217Z,96.30
2022-09-05T19:49:07.733Z,96.50
2022-09-05T19:51:35.242Z,96.60
2022-09-05T19:54:05.985Z,96.70
2022-09-05T19:56:44.631Z,96.80
2022-09-05T19:59:26.703Z,96.90
2022-09-05T20:02:06.996Z,97.00
2022-09-05T20:04:39.071Z,97.10
2022-09-05T20:07:17.217Z,97.20
2022-09-05T20:09:47.139Z,97.60
2022-09-05T20:12:34.752Z,97.50
2022-09-05T20:15:21.131Z,97.80
2022-09-05T20:17:51.918Z,97.90
2022-09-05T20:20:30.350Z,97.90
2022-09-05T20:23:06.829Z,98.00
2022-09-05T20:25:47.218Z,98.30
2022-09-05T20:28:26.475Z,98.50
2022-09-05T20:31:14.151Z,98.60
2022-09-05T20:33:52.203Z,98.60
2022-09-05T20:43:07.830Z,98.70
2022-09-05T20:43:27.110Z,98.80
2022-09-05T20:43:30.782Z,99.00
2022-09-05T20:45:48.455Z,99.20
2022-09-05T20:54:07.174Z,99.30
2022-09-05T20:54:16.796Z,99.30
2022-09-05T20:54:31.873Z,99.40
2022-09-05T20:57:13.433Z,99.50
2022-09-05T20:59:41.849Z,99.40
2022-09-05T21:02:31.119Z,99.30
2022-09-05T21:05:19.887Z,99.20
2022-09-05T21:08:01.176Z,99.10
2022-09-05T21:10:55.366Z,99.00
2022-09-05T21:13:37.602Z,99.00
2022-09-05T21:16:26.738Z,98.90
2022-09-05T21:18:53.674Z,98.90
2022-09-05T21:21:30.186Z,98.90
2022-09-05T21:24:18.139Z,99.00
2022-09-05T21:26:50.055Z,99.00
2022-09-05T21:29:27.613Z,99.10
2022-09-05T21:32:01.597Z,99.00
2022-09-05T21:34:35.240Z,99.00
2022-09-05T21:37:07.133Z,99.30
2022-09-05T21:40:00.451Z,99.10
2022-09-05T21:46:34.324Z,99.20
2022-09-05T21:47:42.353Z,99.20
2022-09-05T21:48:16.663Z,99.20
2022-09-05T21:50:49.554Z,99.30
2022-09-05T21:56:34.568Z,99.40
2022-09-05T21:59:17.323Z,99.50
2022-09-05T21:59:29.830Z,99.50
2022-09-05T22:01:57.069Z,99.60
2022-09-05T22:04:26.189Z,99.70
2022-09-05T22:06:55.099Z,99.70
2022-09-05T22:09:22.783Z,99.70
2022-09-05T22:11:52.633Z,99.70
2022-09-05T22:14:24.844Z,99.70
2022-09-05T22:16:54.857Z,99.80
2022-09-05T22:19:26.161Z,99.70
2022-09-05T22:22:15.497Z,99.70
2022-09-05T22:24:53.637Z,99.70
2022-09-05T22:27:24.668Z,99.80
2022-09-05T22:29:57.330Z,99.80
2022-09-05T22:32:33.941Z,99.90
2022-09-05T22:35:26.973Z,99.90
2022-09-05T22:38:06.010Z,99.90
2022-09-05T22:40:38.958Z,99.90
2022-09-05T22:43:07.809Z,99.90
2022-09-05T22:45:37.073Z,99.90
2022-09-05T22:48:12.542Z,99.90
2022-09-05T22:50:42.618Z,99.90
2022-09-05T22:53:10.474Z,99.90
2022-09-05T22:55:41.411Z,99.90
2022-09-05T22:58:10.575Z,99.90
2022-09-05T23:00:38.867Z,99.90
2022-09-05T23:03:10.400Z,99.70
2022-09-05T23:05:37.475Z,99.70
2022-09-05T23:08:06.059Z,99.60
2022-09-05T23:10:33.655Z,99.40
2022-09-05T23:13:07.203Z,99.30
2022-09-05T23:15:35.512Z,99.30
2022-09-05T23:18:03.660Z,99.30
2022-09-05T23:20:34.219Z,99.10
2022-09-05T23:23:06.135Z,98.90
2022-09-05T23:25:34.951Z,98.70
2022-09-05T23:28:09.229Z,98.60
2022-09-05T23:30:37.242Z,98.30
2022-09-05T23:33:06.975Z,98.20
2022-09-05T23:35:36.391Z,98.10
2022-09-05T23:38:03.384Z,98.00
2022-09-05T23:40:30.161Z,97.90
2022-09-05T23:43:00.004Z,97.90
2022-09-05T23:45:27.964Z,97.80
2022-09-05T23:47:56.342Z,97.80
2022-09-05T23:50:23.145Z,97.90
2022-09-05T23:52:50.009Z,98.00
2022-09-05T23:55:18.942Z,98.00
2022-09-05T23:57:48.525Z,98.10
